sensor_id;sensor_type;location;lat;lon;timestamp;P1;durP1;ratioP1;P2;durP2;ratioP2
4460;SDS011;2243;48.812;9.232;2023-08-06T00:00:54;10.77;;;9.77;;
4460;SDS011;2243;48.812;9.232;2023-08-06T00:03:26;10.17;;;9.07;;
4460;SDS011;2243;48.812;9.232;2023-08-06T00:05:57;10.43;;;9.20;;
4460;SDS011;2243;48.812;9.232;2023-08-06T00:08:28;14.67;;;9.40;;
4460;SDS011;2243;48.812;9.232;2023-08-06T00:10:58;10.80;;;9.70;;
4460;SDS011;2243;48.812;9.232;2023-08-06T00:13:29;9.97;;;8.97;;
4460;SDS011;2243;48.812;9.232;2023-08-06T00:16:08;14.20;;;9.70;;
4460;SDS011;2243;48.812;9.232;2023-08-06T00:18:42;12.00;;;9.43;;
4460;SDS011;2243;48.812;9.232;2023-08-06T00:21:13;11.23;;;9.03;;
4460;SDS011;2243;48.812;9.232;2023-08-06T00:23:44;10.23;;;9.13;;
4460;SDS011;2243;48.812;9.232;2023-08-06T00:26:15;10.63;;;9.30;;
4460;SDS011;2243;48.812;9.232;2023-08-06T00:28:46;11.00;;;9.30;;
4460;SDS011;2243;48.812;9.232;2023-08-06T00:31:17;10.30;;;8.63;;
4460;SDS011;2243;48.812;9.232;2023-08-06T00:33:48;11.93;;;9.00;;
4460;SDS011;2243;48.812;9.232;2023-08-06T00:36:19;11.63;;;9.63;;
4460;SDS011;2243;48.812;9.232;2023-08-06T00:38:50;13.13;;;9.60;;
4460;SDS011;2243;48.812;9.232;2023-08-06T00:41:22;10.03;;;9.00;;
4460;SDS011;2243;48.812;9.232;2023-08-06T00:43:53;13.07;;;9.60;;
4460;SDS011;2243;48.812;9.232;2023-08-06T00:46:24;13.03;;;10.07;;
4460;SDS011;2243;48.812;9.232;2023-08-06T00:48:56;19.13;;;13.00;;
4460;SDS011;2243;48.812;9.232;2023-08-06T00:51:27;12.27;;;11.00;;
4460;SDS011;2243;48.812;9.232;2023-08-06T00:53:58;14.30;;;11.83;;
4460;SDS011;2243;48.812;9.232;2023-08-06T00:56:30;17.47;;;12.90;;
4460;SDS011;2243;48.812;9.232;2023-08-06T00:59:01;12.67;;;10.30;;
4460;SDS011;2243;48.812;9.232;2023-08-06T01:01:36;14.20;;;11.63;;
4460;SDS011;2243;48.812;9.232;2023-08-06T01:04:07;14.83;;;11.13;;
4460;SDS011;2243;48.812;9.232;2023-08-06T01:06:48;13.63;;;12.10;;
4460;SDS011;2243;48.812;9.232;2023-08-06T01:09:31;14.20;;;12.20;;
4460;SDS011;2243;48.812;9.232;2023-08-06T01:15:20;15.23;;;10.67;;
4460;SDS011;2243;48.812;9.232;2023-08-06T01:17:58;15.57;;;12.40;;
4460;SDS011;2243;48.812;9.232;2023-08-06T01:20:30;14.60;;;11.57;;
4460;SDS011;2243;48.812;9.232;2023-08-06T01:23:02;15.40;;;11.70;;
4460;SDS011;2243;48.812;9.232;2023-08-06T01:25:55;13.70;;;11.23;;
4460;SDS011;2243;48.812;9.232;2023-08-06T01:29:13;17.40;;;12.13;;
4460;SDS011;2243;48.812;9.232;2023-08-06T01:31:51;13.40;;;10.17;;
4460;SDS011;2243;48.812;9.232;2023-08-06T01:34:25;14.17;;;11.30;;
4460;SDS011;2243;48.812;9.232;2023-08-06T01:37:00;16.77;;;12.00;;
4460;SDS011;2243;48.812;9.232;2023-08-06T01:39:35;17.60;;;12.10;;
4460;SDS011;2243;48.812;9.232;2023-08-06T01:42:06;12.80;;;10.60;;
4460;SDS011;2243;48.812;9.232;2023-08-06T01:44:38;13.50;;;10.20;;
4460;SDS011;2243;48.812;9.232;2023-08-06T01:47:09;12.50;;;10.70;;
4460;SDS011;2243;48.812;9.232;2023-08-06T01:49:40;12.03;;;9.23;;
4460;SDS011;2243;48.812;9.232;2023-08-06T01:52:11;11.73;;;9.67;;
4460;SDS011;2243;48.812;9.232;2023-08-06T01:54:42;9.93;;;8.90;;
4460;SDS011;2243;48.812;9.232;2023-08-06T01:57:12;12.70;;;9.57;;
4460;SDS011;2243;48.812;9.232;2023-08-06T01:59:43;9.40;;;8.50;;
4460;SDS011;2243;48.812;9.232;2023-08-06T02:02:14;11.00;;;7.87;;
4460;SDS011;2243;48.812;9.232;2023-08-06T02:04:45;8.83;;;7.57;;
4460;SDS011;2243;48.812;9.232;2023-08-06T02:07:16;10.40;;;7.20;;
4460;SDS011;2243;48.812;9.232;2023-08-06T02:09:47;12.83;;;6.27;;
4460;SDS011;2243;48.812;9.232;2023-08-06T02:12:18;7.07;;;6.37;;
4460;SDS011;2243;48.812;9.232;2023-08-06T02:14:49;6.60;;;5.70;;
4460;SDS011;2243;48.812;9.232;2023-08-06T02:17:20;6.13;;;5.10;;
4460;SDS011;2243;48.812;9.232;2023-08-06T02:19:51;5.20;;;4.80;;
4460;SDS011;2243;48.812;9.232;2023-08-06T02:22:22;6.10;;;5.50;;
4460;SDS011;2243;48.812;9.232;2023-08-06T02:24:53;4.63;;;4.23;;
4460;SDS011;2243;48.812;9.232;2023-08-06T02:27:24;4.87;;;4.23;;
4460;SDS011;2243;48.812;9.232;2023-08-06T02:29:55;4.50;;;4.10;;
4460;SDS011;2243;48.812;9.232;2023-08-06T02:32:26;4.90;;;4.10;;
4460;SDS011;2243;48.812;9.232;2023-08-06T02:34:59;5.07;;;4.60;;
4460;SDS011;2243;48.812;9.232;2023-08-06T02:37:30;4.93;;;4.60;;
4460;SDS011;2243;48.812;9.232;2023-08-06T02:40:04;5.33;;;4.93;;
4460;SDS011;2243;48.812;9.232;2023-08-06T02:42:36;6.93;;;6.23;;
4460;SDS011;2243;48.812;9.232;2023-08-06T02:45:07;6.13;;;5.63;;
4460;SDS011;2243;48.812;9.232;2023-08-06T02:47:38;6.10;;;5.53;;
4460;SDS011;2243;48.812;9.232;2023-08-06T02:50:09;5.80;;;4.63;;
4460;SDS011;2243;48.812;9.232;2023-08-06T02:52:40;4.67;;;4.27;;
4460;SDS011;2243;48.812;9.232;2023-08-06T02:55:11;4.77;;;3.80;;
4460;SDS011;2243;48.812;9.232;2023-08-06T02:57:42;7.33;;;3.97;;
4460;SDS011;2243;48.812;9.232;2023-08-06T03:00:13;8.03;;;4.30;;
4460;SDS011;2243;48.812;9.232;2023-08-06T03:02:44;4.30;;;4.00;;
4460;SDS011;2243;48.812;9.232;2023-08-06T03:05:15;4.17;;;3.83;;
4460;SDS011;2243;48.812;9.232;2023-08-06T03:07:46;3.67;;;3.47;;
4460;SDS011;2243;48.812;9.232;2023-08-06T03:10:17;11.40;;;3.90;;
4460;SDS011;2243;48.812;9.232;2023-08-06T03:12:48;3.50;;;3.20;;
4460;SDS011;2243;48.812;9.232;2023-08-06T03:15:19;4.00;;;3.70;;
4460;SDS011;2243;48.812;9.232;2023-08-06T03:17:50;3.57;;;3.37;;
4460;SDS011;2243;48.812;9.232;2023-08-06T03:20:21;5.10;;;3.70;;
4460;SDS011;2243;48.812;9.232;2023-08-06T03:22:52;5.37;;;3.20;;
4460;SDS011;2243;48.812;9.232;2023-08-06T03:25:23;3.23;;;3.03;;
4460;SDS011;2243;48.812;9.232;2023-08-06T03:27:54;3.90;;;3.60;;
4460;SDS011;2243;48.812;9.232;2023-08-06T03:30:25;3.33;;;3.13;;
4460;SDS011;2243;48.812;9.232;2023-08-06T03:32:56;3.83;;;3.43;;
4460;SDS011;2243;48.812;9.232;2023-08-06T03:35:27;3.70;;;3.43;;
4460;SDS011;2243;48.812;9.232;2023-08-06T03:37:58;2.80;;;2.63;;
4460;SDS011;2243;48.812;9.232;2023-08-06T03:40:29;3.57;;;2.70;;
4460;SDS011;2243;48.812;9.232;2023-08-06T03:43:00;6.33;;;2.80;;
4460;SDS011;2243;48.812;9.232;2023-08-06T03:45:31;3.23;;;2.87;;
4460;SDS011;2243;48.812;9.232;2023-08-06T03:48:02;3.30;;;3.10;;
4460;SDS011;2243;48.812;9.232;2023-08-06T03:50:33;8.80;;;3.60;;
4460;SDS011;2243;48.812;9.232;2023-08-06T03:53:04;3.10;;;3.00;;
4460;SDS011;2243;48.812;9.232;2023-08-06T03:55:35;12.03;;;2.97;;
4460;SDS011;2243;48.812;9.232;2023-08-06T03:58:06;4.63;;;3.10;;
4460;SDS011;2243;48.812;9.232;2023-08-06T04:00:37;3.10;;;2.90;;
4460;SDS011;2243;48.812;9.232;2023-08-06T04:03:08;3.10;;;2.90;;
4460;SDS011;2243;48.812;9.232;2023-08-06T04:05:39;3.43;;;2.30;;
4460;SDS011;2243;48.812;9.232;2023-08-06T04:08:10;3.70;;;2.30;;
4460;SDS011;2243;48.812;9.232;2023-08-06T04:10:41;3.13;;;2.90;;
4460;SDS011;2243;48.812;9.232;2023-08-06T04:13:12;3.23;;;2.33;;
4460;SDS011;2243;48.812;9.232;2023-08-06T04:15:43;4.70;;;2.97;;
4460;SDS011;2243;48.812;9.232;2023-08-06T04:18:15;3.83;;;3.40;;
4460;SDS011;2243;48.812;9.232;2023-08-06T04:20:46;3.60;;;3.30;;
4460;SDS011;2243;48.812;9.232;2023-08-06T04:23:19;2.50;;;2.40;;
4460;SDS011;2243;48.812;9.232;2023-08-06T04:25:50;3.10;;;2.90;;
4460;SDS011;2243;48.812;9.232;2023-08-06T04:28:21;7.97;;;3.27;;
4460;SDS011;2243;48.812;9.232;2023-08-06T04:30:52;4.40;;;3.43;;
4460;SDS011;2243;48.812;9.232;2023-08-06T04:33:24;3.50;;;3.27;;
4460;SDS011;2243;48.812;9.232;2023-08-06T04:35:55;3.07;;;2.83;;
4460;SDS011;2243;48.812;9.232;2023-08-06T04:38:26;3.00;;;2.80;;
4460;SDS011;2243;48.812;9.232;2023-08-06T04:40:57;3.47;;;3.03;;
4460;SDS011;2243;48.812;9.232;2023-08-06T04:43:28;3.33;;;3.13;;
4460;SDS011;2243;48.812;9.232;2023-08-06T04:45:59;4.63;;;3.63;;
4460;SDS011;2243;48.812;9.232;2023-08-06T04:48:30;3.60;;;3.33;;
4460;SDS011;2243;48.812;9.232;2023-08-06T04:51:01;3.43;;;3.13;;
4460;SDS011;2243;48.812;9.232;2023-08-06T04:53:32;3.30;;;3.10;;
4460;SDS011;2243;48.812;9.232;2023-08-06T04:56:03;4.20;;;3.17;;
4460;SDS011;2243;48.812;9.232;2023-08-06T04:58:34;3.60;;;3.30;;
4460;SDS011;2243;48.812;9.232;2023-08-06T05:01:07;3.93;;;3.10;;
4460;SDS011;2243;48.812;9.232;2023-08-06T05:03:38;3.97;;;3.67;;
4460;SDS011;2243;48.812;9.232;2023-08-06T05:06:09;6.50;;;3.23;;
4460;SDS011;2243;48.812;9.232;2023-08-06T05:08:41;4.27;;;3.70;;
4460;SDS011;2243;48.812;9.232;2023-08-06T05:11:12;4.50;;;3.90;;
4460;SDS011;2243;48.812;9.232;2023-08-06T05:13:42;3.70;;;3.40;;
4460;SDS011;2243;48.812;9.232;2023-08-06T05:16:13;3.87;;;3.27;;
4460;SDS011;2243;48.812;9.232;2023-08-06T05:18:44;3.90;;;3.63;;
4460;SDS011;2243;48.812;9.232;2023-08-06T05:21:15;3.53;;;3.30;;
4460;SDS011;2243;48.812;9.232;2023-08-06T05:23:46;3.73;;;3.43;;
4460;SDS011;2243;48.812;9.232;2023-08-06T05:26:17;3.40;;;3.20;;
4460;SDS011;2243;48.812;9.232;2023-08-06T05:28:49;3.37;;;3.17;;
4460;SDS011;2243;48.812;9.232;2023-08-06T05:31:20;4.07;;;3.77;;
4460;SDS011;2243;48.812;9.232;2023-08-06T05:33:51;3.10;;;2.90;;
4460;SDS011;2243;48.812;9.232;2023-08-06T05:36:22;5.57;;;2.87;;
4460;SDS011;2243;48.812;9.232;2023-08-06T05:38:53;3.47;;;3.27;;
4460;SDS011;2243;48.812;9.232;2023-08-06T05:41:24;5.23;;;3.00;;
4460;SDS011;2243;48.812;9.232;2023-08-06T05:43:55;3.77;;;2.60;;
4460;SDS011;2243;48.812;9.232;2023-08-06T05:46:26;2.43;;;2.33;;
4460;SDS011;2243;48.812;9.232;2023-08-06T05:48:57;3.50;;;2.90;;
4460;SDS011;2243;48.812;9.232;2023-08-06T05:51:28;2.10;;;1.90;;
4460;SDS011;2243;48.812;9.232;2023-08-06T05:53:59;2.20;;;2.00;;
4460;SDS011;2243;48.812;9.232;2023-08-06T05:56:30;2.90;;;2.33;;
4460;SDS011;2243;48.812;9.232;2023-08-06T05:59:01;3.93;;;2.07;;
4460;SDS011;2243;48.812;9.232;2023-08-06T06:01:32;2.00;;;1.90;;
4460;SDS011;2243;48.812;9.232;2023-08-06T06:04:03;2.13;;;1.50;;
4460;SDS011;2243;48.812;9.232;2023-08-06T06:06:34;2.30;;;2.10;;
4460;SDS011;2243;48.812;9.232;2023-08-06T06:09:05;3.53;;;1.50;;
4460;SDS011;2243;48.812;9.232;2023-08-06T06:11:36;1.77;;;1.67;;
4460;SDS011;2243;48.812;9.232;2023-08-06T06:14:07;2.00;;;1.90;;
4460;SDS011;2243;48.812;9.232;2023-08-06T06:16:38;1.20;;;1.10;;
4460;SDS011;2243;48.812;9.232;2023-08-06T06:19:08;1.00;;;0.90;;
4460;SDS011;2243;48.812;9.232;2023-08-06T06:21:39;1.20;;;1.10;;
4460;SDS011;2243;48.812;9.232;2023-08-06T06:24:10;1.07;;;0.97;;
4460;SDS011;2243;48.812;9.232;2023-08-06T06:26:41;1.20;;;1.20;;
4460;SDS011;2243;48.812;9.232;2023-08-06T06:29:12;0.90;;;0.90;;
4460;SDS011;2243;48.812;9.232;2023-08-06T06:31:43;3.60;;;1.00;;
4460;SDS011;2243;48.812;9.232;2023-08-06T06:34:14;0.90;;;0.90;;
4460;SDS011;2243;48.812;9.232;2023-08-06T06:36:45;1.10;;;1.00;;
4460;SDS011;2243;48.812;9.232;2023-08-06T06:39:17;2.73;;;0.80;;
4460;SDS011;2243;48.812;9.232;2023-08-06T06:41:48;1.40;;;0.80;;
4460;SDS011;2243;48.812;9.232;2023-08-06T06:44:19;1.20;;;1.10;;
4460;SDS011;2243;48.812;9.232;2023-08-06T06:46:51;1.37;;;1.00;;
4460;SDS011;2243;48.812;9.232;2023-08-06T06:49:22;1.00;;;0.87;;
4460;SDS011;2243;48.812;9.232;2023-08-06T06:51:53;7.70;;;1.03;;
4460;SDS011;2243;48.812;9.232;2023-08-06T06:54:24;1.03;;;1.00;;
4460;SDS011;2243;48.812;9.232;2023-08-06T06:56:55;0.77;;;0.77;;
4460;SDS011;2243;48.812;9.232;2023-08-06T06:59:27;2.03;;;1.00;;
4460;SDS011;2243;48.812;9.232;2023-08-06T07:01:58;1.67;;;0.97;;
4460;SDS011;2243;48.812;9.232;2023-08-06T07:04:29;1.03;;;0.90;;
4460;SDS011;2243;48.812;9.232;2023-08-06T07:07:00;2.30;;;0.97;;
4460;SDS011;2243;48.812;9.232;2023-08-06T07:09:31;1.00;;;1.00;;
4460;SDS011;2243;48.812;9.232;2023-08-06T07:12:02;1.10;;;0.70;;
4460;SDS011;2243;48.812;9.232;2023-08-06T07:14:33;0.97;;;0.87;;
4460;SDS011;2243;48.812;9.232;2023-08-06T07:17:04;1.07;;;0.70;;
4460;SDS011;2243;48.812;9.232;2023-08-06T07:19:35;0.90;;;0.63;;
4460;SDS011;2243;48.812;9.232;2023-08-06T07:22:06;1.40;;;1.23;;
4460;SDS011;2243;48.812;9.232;2023-08-06T07:24:37;0.70;;;0.70;;
4460;SDS011;2243;48.812;9.232;2023-08-06T07:27:08;1.83;;;0.87;;
4460;SDS011;2243;48.812;9.232;2023-08-06T07:29:39;0.93;;;0.83;;
4460;SDS011;2243;48.812;9.232;2023-08-06T07:32:10;1.07;;;1.00;;
4460;SDS011;2243;48.812;9.232;2023-08-06T07:34:41;0.70;;;0.70;;
4460;SDS011;2243;48.812;9.232;2023-08-06T07:37:12;0.93;;;0.90;;
4460;SDS011;2243;48.812;9.232;2023-08-06T07:39:43;0.70;;;0.70;;
4460;SDS011;2243;48.812;9.232;2023-08-06T07:42:14;2.70;;;0.90;;
4460;SDS011;2243;48.812;9.232;2023-08-06T07:44:49;1.00;;;0.90;;
4460;SDS011;2243;48.812;9.232;2023-08-06T07:47:29;0.70;;;0.70;;
4460;SDS011;2243;48.812;9.232;2023-08-06T07:50:00;0.80;;;0.80;;
4460;SDS011;2243;48.812;9.232;2023-08-06T07:52:31;0.93;;;0.80;;
4460;SDS011;2243;48.812;9.232;2023-08-06T07:55:02;0.77;;;0.77;;
4460;SDS011;2243;48.812;9.232;2023-08-06T07:57:35;0.87;;;0.67;;
4460;SDS011;2243;48.812;9.232;2023-08-06T08:00:06;0.70;;;0.70;;
4460;SDS011;2243;48.812;9.232;2023-08-06T08:02:38;1.57;;;0.90;;
4460;SDS011;2243;48.812;9.232;2023-08-06T08:05:08;0.70;;;0.70;;
4460;SDS011;2243;48.812;9.232;2023-08-06T08:07:39;0.80;;;0.77;;
4460;SDS011;2243;48.812;9.232;2023-08-06T08:10:11;0.60;;;0.60;;
4460;SDS011;2243;48.812;9.232;2023-08-06T08:12:42;0.50;;;0.50;;
4460;SDS011;2243;48.812;9.232;2023-08-06T08:15:13;1.47;;;0.50;;
4460;SDS011;2243;48.812;9.232;2023-08-06T08:17:44;0.60;;;0.50;;
4460;SDS011;2243;48.812;9.232;2023-08-06T08:20:16;0.70;;;0.57;;
4460;SDS011;2243;48.812;9.232;2023-08-06T08:22:47;0.63;;;0.63;;
4460;SDS011;2243;48.812;9.232;2023-08-06T08:25:18;0.50;;;0.50;;
4460;SDS011;2243;48.812;9.232;2023-08-06T08:27:49;0.90;;;0.80;;
4460;SDS011;2243;48.812;9.232;2023-08-06T08:30:20;1.33;;;0.80;;
4460;SDS011;2243;48.812;9.232;2023-08-06T08:32:52;1.30;;;1.20;;
4460;SDS011;2243;48.812;9.232;2023-08-06T08:35:25;0.50;;;0.47;;
4460;SDS011;2243;48.812;9.232;2023-08-06T08:37:56;0.83;;;0.60;;
4460;SDS011;2243;48.812;9.232;2023-08-06T08:40:29;0.50;;;0.50;;
4460;SDS011;2243;48.812;9.232;2023-08-06T08:43:03;0.50;;;0.50;;
4460;SDS011;2243;48.812;9.232;2023-08-06T08:45:35;0.50;;;0.40;;
4460;SDS011;2243;48.812;9.232;2023-08-06T08:48:11;0.77;;;0.50;;
4460;SDS011;2243;48.812;9.232;2023-08-06T08:50:44;0.50;;;0.50;;
4460;SDS011;2243;48.812;9.232;2023-08-06T08:53:18;1.13;;;0.50;;
4460;SDS011;2243;48.812;9.232;2023-08-06T08:55:51;0.50;;;0.40;;
4460;SDS011;2243;48.812;9.232;2023-08-06T08:58:23;0.50;;;0.50;;
4460;SDS011;2243;48.812;9.232;2023-08-06T09:00:54;0.53;;;0.47;;
4460;SDS011;2243;48.812;9.232;2023-08-06T09:03:26;0.50;;;0.40;;
4460;SDS011;2243;48.812;9.232;2023-08-06T09:05:57;0.70;;;0.50;;
4460;SDS011;2243;48.812;9.232;2023-08-06T09:08:34;0.50;;;0.40;;
4460;SDS011;2243;48.812;9.232;2023-08-06T09:11:09;0.83;;;0.83;;
4460;SDS011;2243;48.812;9.232;2023-08-06T09:13:43;0.60;;;0.50;;
4460;SDS011;2243;48.812;9.232;2023-08-06T09:16:15;0.60;;;0.53;;
4460;SDS011;2243;48.812;9.232;2023-08-06T09:18:46;0.50;;;0.50;;
4460;SDS011;2243;48.812;9.232;2023-08-06T09:21:17;0.60;;;0.50;;
4460;SDS011;2243;48.812;9.232;2023-08-06T09:23:48;0.60;;;0.50;;
4460;SDS011;2243;48.812;9.232;2023-08-06T09:26:19;0.50;;;0.50;;
4460;SDS011;2243;48.812;9.232;2023-08-06T09:28:51;0.63;;;0.50;;
4460;SDS011;2243;48.812;9.232;2023-08-06T09:31:23;0.50;;;0.40;;
4460;SDS011;2243;48.812;9.232;2023-08-06T09:33:54;0.97;;;0.77;;
4460;SDS011;2243;48.812;9.232;2023-08-06T09:36:25;0.50;;;0.40;;
4460;SDS011;2243;48.812;9.232;2023-08-06T09:38:57;0.50;;;0.50;;
4460;SDS011;2243;48.812;9.232;2023-08-06T09:41:28;4.20;;;0.60;;
4460;SDS011;2243;48.812;9.232;2023-08-06T09:43:59;0.50;;;0.50;;
4460;SDS011;2243;48.812;9.232;2023-08-06T09:46:31;0.60;;;0.60;;
4460;SDS011;2243;48.812;9.232;2023-08-06T09:49:03;0.50;;;0.50;;
4460;SDS011;2243;48.812;9.232;2023-08-06T09:51:38;0.97;;;0.60;;
4460;SDS011;2243;48.812;9.232;2023-08-06T09:54:11;0.50;;;0.50;;
4460;SDS011;2243;48.812;9.232;2023-08-06T09:56:56;0.50;;;0.50;;
4460;SDS011;2243;48.812;9.232;2023-08-06T09:59:27;0.50;;;0.43;;
4460;SDS011;2243;48.812;9.232;2023-08-06T10:01:59;1.73;;;1.63;;
4460;SDS011;2243;48.812;9.232;2023-08-06T10:04:30;1.00;;;0.50;;
4460;SDS011;2243;48.812;9.232;2023-08-06T10:07:11;0.50;;;0.40;;
4460;SDS011;2243;48.812;9.232;2023-08-06T10:09:42;1.10;;;0.70;;
4460;SDS011;2243;48.812;9.232;2023-08-06T10:12:13;0.60;;;0.50;;
4460;SDS011;2243;48.812;9.232;2023-08-06T10:14:45;1.73;;;0.50;;
4460;SDS011;2243;48.812;9.232;2023-08-06T10:17:18;0.60;;;0.40;;
4460;SDS011;2243;48.812;9.232;2023-08-06T10:19:50;2.70;;;0.70;;
4460;SDS011;2243;48.812;9.232;2023-08-06T10:22:25;0.50;;;0.50;;
4460;SDS011;2243;48.812;9.232;2023-08-06T10:25:03;0.50;;;0.50;;
4460;SDS011;2243;48.812;9.232;2023-08-06T10:27:35;0.50;;;0.50;;
4460;SDS011;2243;48.812;9.232;2023-08-06T10:30:31;0.60;;;0.50;;
4460;SDS011;2243;48.812;9.232;2023-08-06T10:33:03;0.50;;;0.50;;
4460;SDS011;2243;48.812;9.232;2023-08-06T10:35:36;1.10;;;0.50;;
4460;SDS011;2243;48.812;9.232;2023-08-06T10:38:17;0.60;;;0.60;;
4460;SDS011;2243;48.812;9.232;2023-08-06T10:43:36;0.50;;;0.50;;
4460;SDS011;2243;48.812;9.232;2023-08-06T10:46:20;0.50;;;0.50;;
4460;SDS011;2243;48.812;9.232;2023-08-06T10:48:57;0.50;;;0.50;;
4460;SDS011;2243;48.812;9.232;2023-08-06T10:51:29;8.50;;;0.60;;
4460;SDS011;2243;48.812;9.232;2023-08-06T10:54:00;0.50;;;0.50;;
4460;SDS011;2243;48.812;9.232;2023-08-06T10:56:32;0.60;;;0.50;;
4460;SDS011;2243;48.812;9.232;2023-08-06T10:59:14;0.50;;;0.40;;
4460;SDS011;2243;48.812;9.232;2023-08-06T11:01:45;0.50;;;0.50;;
4460;SDS011;2243;48.812;9.232;2023-08-06T11:04:16;0.50;;;0.50;;
4460;SDS011;2243;48.812;9.232;2023-08-06T11:06:51;0.50;;;0.50;;
4460;SDS011;2243;48.812;9.232;2023-08-06T11:09:23;0.53;;;0.53;;
4460;SDS011;2243;48.812;9.232;2023-08-06T11:11:54;0.50;;;0.50;;
4460;SDS011;2243;48.812;9.232;2023-08-06T11:14:26;0.50;;;0.50;;
4460;SDS011;2243;48.812;9.232;2023-08-06T11:16:57;0.80;;;0.80;;
4460;SDS011;2243;48.812;9.232;2023-08-06T11:19:28;0.70;;;0.70;;
4460;SDS011;2243;48.812;9.232;2023-08-06T11:21:59;0.90;;;0.90;;
4460;SDS011;2243;48.812;9.232;2023-08-06T11:24:32;1.63;;;0.60;;
4460;SDS011;2243;48.812;9.232;2023-08-06T11:27:10;1.03;;;0.80;;
4460;SDS011;2243;48.812;9.232;2023-08-06T11:29:45;0.63;;;0.63;;
4460;SDS011;2243;48.812;9.232;2023-08-06T11:32:17;0.70;;;0.70;;
4460;SDS011;2243;48.812;9.232;2023-08-06T11:34:48;0.70;;;0.70;;
4460;SDS011;2243;48.812;9.232;2023-08-06T11:37:23;1.47;;;1.03;;
4460;SDS011;2243;48.812;9.232;2023-08-06T11:39:57;1.10;;;1.10;;
4460;SDS011;2243;48.812;9.232;2023-08-06T11:42:31;0.77;;;0.77;;
4460;SDS011;2243;48.812;9.232;2023-08-06T11:45:04;1.00;;;1.00;;
4460;SDS011;2243;48.812;9.232;2023-08-06T11:47:39;1.13;;;1.03;;
4460;SDS011;2243;48.812;9.232;2023-08-06T11:50:21;1.30;;;1.20;;
4460;SDS011;2243;48.812;9.232;2023-08-06T11:52:57;1.30;;;1.20;;
4460;SDS011;2243;48.812;9.232;2023-08-06T11:55:30;2.03;;;1.93;;
4460;SDS011;2243;48.812;9.232;2023-08-06T11:58:04;1.50;;;1.40;;
4460;SDS011;2243;48.812;9.232;2023-08-06T12:00:36;1.30;;;1.20;;
4460;SDS011;2243;48.812;9.232;2023-08-06T12:03:07;1.43;;;1.20;;
4460;SDS011;2243;48.812;9.232;2023-08-06T12:05:40;1.60;;;1.50;;
4460;SDS011;2243;48.812;9.232;2023-08-06T12:08:11;1.10;;;1.10;;
4460;SDS011;2243;48.812;9.232;2023-08-06T12:10:42;1.83;;;1.73;;
4460;SDS011;2243;48.812;9.232;2023-08-06T12:13:13;1.30;;;1.20;;
4460;SDS011;2243;48.812;9.232;2023-08-06T12:15:49;3.17;;;1.93;;
4460;SDS011;2243;48.812;9.232;2023-08-06T12:18:25;1.80;;;1.70;;
4460;SDS011;2243;48.812;9.232;2023-08-06T12:20:56;2.60;;;1.47;;
4460;SDS011;2243;48.812;9.232;2023-08-06T12:23:27;2.60;;;1.70;;
4460;SDS011;2243;48.812;9.232;2023-08-06T12:25:58;3.23;;;1.77;;
4460;SDS011;2243;48.812;9.232;2023-08-06T12:28:30;2.87;;;1.90;;
4460;SDS011;2243;48.812;9.232;2023-08-06T12:31:01;1.80;;;1.70;;
4460;SDS011;2243;48.812;9.232;2023-08-06T12:33:32;1.70;;;1.60;;
4460;SDS011;2243;48.812;9.232;2023-08-06T12:36:03;1.73;;;1.63;;
4460;SDS011;2243;48.812;9.232;2023-08-06T12:38:34;2.27;;;2.07;;
4460;SDS011;2243;48.812;9.232;2023-08-06T12:41:05;2.30;;;2.20;;
4460;SDS011;2243;48.812;9.232;2023-08-06T12:43:36;5.73;;;1.83;;
4460;SDS011;2243;48.812;9.232;2023-08-06T12:46:07;2.60;;;1.57;;
4460;SDS011;2243;48.812;9.232;2023-08-06T12:48:38;2.43;;;2.23;;
4460;SDS011;2243;48.812;9.232;2023-08-06T12:51:09;1.87;;;1.30;;
4460;SDS011;2243;48.812;9.232;2023-08-06T12:53:40;1.27;;;1.27;;
4460;SDS011;2243;48.812;9.232;2023-08-06T12:56:14;1.30;;;1.30;;
4460;SDS011;2243;48.812;9.232;2023-08-06T12:58:45;1.40;;;1.30;;
4460;SDS011;2243;48.812;9.232;2023-08-06T13:01:16;1.80;;;1.70;;
4460;SDS011;2243;48.812;9.232;2023-08-06T13:03:47;1.40;;;1.30;;
4460;SDS011;2243;48.812;9.232;2023-08-06T13:06:19;1.93;;;1.33;;
4460;SDS011;2243;48.812;9.232;2023-08-06T13:08:50;1.00;;;1.00;;
4460;SDS011;2243;48.812;9.232;2023-08-06T13:11:21;1.40;;;1.30;;
4460;SDS011;2243;48.812;9.232;2023-08-06T13:13:52;1.43;;;1.27;;
4460;SDS011;2243;48.812;9.232;2023-08-06T13:16:23;1.63;;;1.53;;
4460;SDS011;2243;48.812;9.232;2023-08-06T13:18:54;0.90;;;0.90;;
4460;SDS011;2243;48.812;9.232;2023-08-06T13:21:31;1.27;;;1.03;;
4460;SDS011;2243;48.812;9.232;2023-08-06T13:24:21;1.40;;;1.17;;
4460;SDS011;2243;48.812;9.232;2023-08-06T13:26:52;1.50;;;1.30;;
4460;SDS011;2243;48.812;9.232;2023-08-06T13:29:24;1.50;;;1.40;;
4460;SDS011;2243;48.812;9.232;2023-08-06T13:31:56;1.17;;;1.17;;
4460;SDS011;2243;48.812;9.232;2023-08-06T13:34:27;1.33;;;0.97;;
4460;SDS011;2243;48.812;9.232;2023-08-06T13:36:58;0.90;;;0.90;;
4460;SDS011;2243;48.812;9.232;2023-08-06T13:39:29;1.17;;;0.80;;
4460;SDS011;2243;48.812;9.232;2023-08-06T13:42:00;0.90;;;0.90;;
4460;SDS011;2243;48.812;9.232;2023-08-06T13:44:31;1.07;;;1.07;;
4460;SDS011;2243;48.812;9.232;2023-08-06T13:47:06;0.80;;;0.80;;
4460;SDS011;2243;48.812;9.232;2023-08-06T13:49:37;0.90;;;0.90;;
4460;SDS011;2243;48.812;9.232;2023-08-06T13:52:10;2.03;;;0.83;;
4460;SDS011;2243;48.812;9.232;2023-08-06T13:54:52;0.90;;;0.90;;
4460;SDS011;2243;48.812;9.232;2023-08-06T13:57:23;0.90;;;0.90;;
4460;SDS011;2243;48.812;9.232;2023-08-06T13:59:54;1.13;;;1.07;;
4460;SDS011;2243;48.812;9.232;2023-08-06T14:02:25;1.00;;;0.90;;
4460;SDS011;2243;48.812;9.232;2023-08-06T14:04:56;1.37;;;1.37;;
4460;SDS011;2243;48.812;9.232;2023-08-06T14:07:27;1.40;;;0.90;;
4460;SDS011;2243;48.812;9.232;2023-08-06T14:09:58;1.90;;;1.00;;
4460;SDS011;2243;48.812;9.232;2023-08-06T14:12:29;0.93;;;0.90;;
4460;SDS011;2243;48.812;9.232;2023-08-06T14:15:01;0.97;;;0.87;;
4460;SDS011;2243;48.812;9.232;2023-08-06T14:17:33;1.77;;;1.67;;
4460;SDS011;2243;48.812;9.232;2023-08-06T14:20:05;1.77;;;1.67;;
4460;SDS011;2243;48.812;9.232;2023-08-06T14:22:41;1.27;;;1.17;;
4460;SDS011;2243;48.812;9.232;2023-08-06T14:25:12;1.10;;;1.00;;
4460;SDS011;2243;48.812;9.232;2023-08-06T14:27:43;2.10;;;2.00;;
4460;SDS011;2243;48.812;9.232;2023-08-06T14:30:14;0.90;;;0.90;;
4460;SDS011;2243;48.812;9.232;2023-08-06T14:32:45;3.50;;;1.30;;
4460;SDS011;2243;48.812;9.232;2023-08-06T14:35:16;1.53;;;1.43;;
4460;SDS011;2243;48.812;9.232;2023-08-06T14:37:47;1.47;;;1.30;;
4460;SDS011;2243;48.812;9.232;2023-08-06T14:40:18;5.33;;;1.90;;
4460;SDS011;2243;48.812;9.232;2023-08-06T14:42:49;1.27;;;1.23;;
4460;SDS011;2243;48.812;9.232;2023-08-06T14:45:20;1.40;;;1.30;;
4460;SDS011;2243;48.812;9.232;2023-08-06T14:47:51;1.10;;;1.10;;
4460;SDS011;2243;48.812;9.232;2023-08-06T14:50:22;1.23;;;1.13;;
4460;SDS011;2243;48.812;9.232;2023-08-06T14:52:54;1.20;;;1.20;;
4460;SDS011;2243;48.812;9.232;2023-08-06T14:55:25;0.97;;;0.87;;
4460;SDS011;2243;48.812;9.232;2023-08-06T14:57:56;0.90;;;0.90;;
4460;SDS011;2243;48.812;9.232;2023-08-06T15:00:28;0.87;;;0.87;;
4460;SDS011;2243;48.812;9.232;2023-08-06T15:02:59;0.83;;;0.83;;
4460;SDS011;2243;48.812;9.232;2023-08-06T15:05:30;2.93;;;1.20;;
4460;SDS011;2243;48.812;9.232;2023-08-06T15:08:01;1.17;;;1.17;;
4460;SDS011;2243;48.812;9.232;2023-08-06T15:10:32;0.80;;;0.80;;
4460;SDS011;2243;48.812;9.232;2023-08-06T15:13:03;1.00;;;1.00;;
4460;SDS011;2243;48.812;9.232;2023-08-06T15:15:34;0.90;;;0.90;;
4460;SDS011;2243;48.812;9.232;2023-08-06T15:18:06;1.03;;;1.03;;
4460;SDS011;2243;48.812;9.232;2023-08-06T15:20:37;1.13;;;1.07;;
4460;SDS011;2243;48.812;9.232;2023-08-06T15:23:08;1.37;;;1.10;;
4460;SDS011;2243;48.812;9.232;2023-08-06T15:25:39;1.13;;;1.00;;
4460;SDS011;2243;48.812;9.232;2023-08-06T15:28:10;1.17;;;0.80;;
4460;SDS011;2243;48.812;9.232;2023-08-06T15:30:45;1.10;;;1.10;;
4460;SDS011;2243;48.812;9.232;2023-08-06T15:33:21;1.00;;;1.00;;
4460;SDS011;2243;48.812;9.232;2023-08-06T15:35:52;1.30;;;1.10;;
4460;SDS011;2243;48.812;9.232;2023-08-06T15:38:23;3.17;;;0.90;;
4460;SDS011;2243;48.812;9.232;2023-08-06T15:40:54;1.57;;;1.47;;
4460;SDS011;2243;48.812;9.232;2023-08-06T15:43:25;0.80;;;0.80;;
4460;SDS011;2243;48.812;9.232;2023-08-06T15:45:56;0.93;;;0.93;;
4460;SDS011;2243;48.812;9.232;2023-08-06T15:48:27;1.07;;;1.00;;